Time;durP1;ratioP1;P1;durP2;ratioP2;P2;SDS_P1;SDS_P2;PMS_P1;PMS_P2;Temp;Humidity;BMP_temperature;BMP_pressure;BME280_temperature;BME280_humidity;BME280_pressure;Samples;Min_cycle;Max_cycle;Signal;HPM_P1;HPM_P2
2023/08/18 00:01:39;;;;;;;10.10;9.40;;;;;;;;;;4879027;29;20623;-66
2023/08/18 00:04:07;;;;;;;11.13;9.83;;;;;;;;;;4878202;29;20666;-65
2023/08/18 00:06:35;;;;;;;10.67;9.73;;;;;;;;;;4879389;29;20645;-66
2023/08/18 00:09:04;;;;;;;9.70;8.90;;;;;;;;;;4879620;29;20631;-66
2023/08/18 00:11:32;;;;;;;10.37;9.37;;;;;;;;;;4880119;29;20619;-66
2023/08/18 00:14:01;;;;;;;9.63;8.93;;;;;;;;;;4879606;29;20630;-68
2023/08/18 00:16:30;;;;;;;9.97;9.07;;;;;;;;;;4878542;29;20634;-67
2023/08/18 00:18:58;;;;;;;11.73;9.80;;;;;;;;;;4879768;29;21037;-65
2023/08/18 00:21:26;;;;;;;9.57;8.50;;;;;;;;;;4879998;29;20627;-66
2023/08/18 00:23:54;;;;;;;10.30;9.23;;;;;;;;;;4880766;29;20626;-66
2023/08/18 00:26:22;;;;;;;14.63;9.97;;;;;;;;;;4880440;29;20619;-67
2023/08/18 00:28:51;;;;;;;11.90;10.07;;;;;;;;;;4863789;29;20611;-66
2023/08/18 00:31:20;;;;;;;10.23;8.90;;;;;;;;;;4863447;29;20615;-68
2023/08/18 00:33:51;;;;;;;11.30;9.43;;;;;;;;;;4863759;29;20611;-66
2023/08/18 00:36:20;;;;;;;10.23;8.97;;;;;;;;;;4880036;29;20625;-66
2023/08/18 00:38:48;;;;;;;10.13;9.33;;;;;;;;;;4880381;29;20667;-66
2023/08/18 00:41:16;;;;;;;11.07;9.77;;;;;;;;;;4863151;29;20623;-65
2023/08/18 00:43:44;;;;;;;10.17;9.37;;;;;;;;;;4863319;29;20623;-65
2023/08/18 00:46:12;;;;;;;12.13;9.33;;;;;;;;;;4879495;29;20619;-66
2023/08/18 00:48:43;;;;;;;11.40;10.30;;;;;;;;;;4879478;29;20645;-66
2023/08/18 00:51:11;;;;;;;10.57;9.67;;;;;;;;;;4862856;29;20973;-66
2023/08/18 00:53:42;;;;;;;10.30;9.50;;;;;;;;;;4878974;29;20635;-66
2023/08/18 00:56:10;;;;;;;10.90;10.00;;;;;;;;;;4860563;29;20640;-65
2023/08/18 00:58:39;;;;;;;12.23;11.13;;;;;;;;;;4844286;29;20660;-66
2023/08/18 01:01:07;;;;;;;12.30;11.10;;;;;;;;;;4860885;29;20642;-66
2023/08/18 01:03:36;;;;;;;11.97;11.00;;;;;;;;;;4858811;29;20697;-65
2023/08/18 01:06:05;;;;;;;18.10;12.37;;;;;;;;;;4864358;29;20642;-66
2023/08/18 01:08:34;;;;;;;13.00;11.40;;;;;;;;;;4860617;29;21178;-67
2023/08/18 01:11:04;;;;;;;13.13;11.37;;;;;;;;;;4868089;29;20631;-66
2023/08/18 01:13:38;;;;;;;12.67;11.37;;;;;;;;;;4879644;29;20594;-66
2023/08/18 01:16:10;;;;;;;13.50;12.20;;;;;;;;;;4878296;29;20669;-66
2023/08/18 01:18:39;;;;;;;12.97;11.77;;;;;;;;;;4879657;29;20698;-66
2023/08/18 01:21:11;;;;;;;13.57;12.27;;;;;;;;;;4878194;29;20667;-66
2023/08/18 01:23:41;;;;;;;12.80;11.53;;;;;;;;;;4879630;29;20622;-66
2023/08/18 01:26:09;;;;;;;12.90;11.80;;;;;;;;;;4861937;29;20622;-66
2023/08/18 01:28:37;;;;;;;13.10;12.10;;;;;;;;;;4879221;29;20615;-66
2023/08/18 01:31:08;;;;;;;13.60;12.40;;;;;;;;;;4878455;29;20627;-66
2023/08/18 01:33:39;;;;;;;12.90;12.00;;;;;;;;;;4879287;29;20623;-66
2023/08/18 01:36:09;;;;;;;14.50;13.27;;;;;;;;;;4861709;29;20612;-67
2023/08/18 01:38:39;;;;;;;13.30;12.10;;;;;;;;;;4878347;29;20752;-66
2023/08/18 01:41:09;;;;;;;14.10;12.80;;;;;;;;;;4878636;29;21182;-66
2023/08/18 01:43:38;;;;;;;13.27;11.87;;;;;;;;;;4878617;29;20612;-66
2023/08/18 01:46:06;;;;;;;14.30;12.87;;;;;;;;;;4877989;29;20637;-67
2023/08/18 01:48:34;;;;;;;14.57;13.03;;;;;;;;;;4878628;29;20637;-66
2023/08/18 01:51:02;;;;;;;13.73;12.53;;;;;;;;;;4877698;29;20623;-67
2023/08/18 01:53:32;;;;;;;14.07;12.87;;;;;;;;;;4859902;29;20649;-66
2023/08/18 01:56:01;;;;;;;13.87;12.57;;;;;;;;;;4877932;29;20635;-66
2023/08/18 01:58:30;;;;;;;13.90;12.50;;;;;;;;;;4861338;29;20675;-66
2023/08/18 02:00:59;;;;;;;14.33;13.03;;;;;;;;;;4877739;29;20641;-66
2023/08/18 02:03:27;;;;;;;13.83;12.63;;;;;;;;;;4874791;29;20674;-66
2023/08/18 02:05:57;;;;;;;13.57;12.33;;;;;;;;;;4876455;29;20717;-66
2023/08/18 02:08:25;;;;;;;12.40;11.30;;;;;;;;;;4878065;29;20626;-69
2023/08/18 02:10:53;;;;;;;13.73;11.77;;;;;;;;;;4878308;29;20686;-66
2023/08/18 02:13:22;;;;;;;14.47;12.97;;;;;;;;;;4878212;29;20629;-66
2023/08/18 02:15:51;;;;;;;12.73;11.70;;;;;;;;;;4862253;29;20631;-66
2023/08/18 02:18:19;;;;;;;13.43;12.23;;;;;;;;;;4877737;29;21048;-66
2023/08/18 02:20:48;;;;;;;12.93;11.83;;;;;;;;;;4878461;29;20630;-65
2023/08/18 02:23:17;;;;;;;12.17;11.10;;;;;;;;;;4878391;29;20634;-66
2023/08/18 02:25:45;;;;;;;13.70;12.50;;;;;;;;;;4877941;29;20623;-66
2023/08/18 02:28:15;;;;;;;13.23;12.03;;;;;;;;;;4861176;29;20623;-66
2023/08/18 02:30:43;;;;;;;13.60;12.53;;;;;;;;;;4877717;29;20592;-66
2023/08/18 02:33:12;;;;;;;17.73;11.67;;;;;;;;;;4858198;29;20619;-66
2023/08/18 02:35:46;;;;;;;12.43;11.30;;;;;;;;;;4864864;29;20626;-66
2023/08/18 02:38:15;;;;;;;12.47;11.17;;;;;;;;;;4861724;29;20595;-66
2023/08/18 02:40:45;;;;;;;13.27;12.20;;;;;;;;;;4877571;29;20655;-66
2023/08/18 02:43:13;;;;;;;13.50;12.20;;;;;;;;;;4877820;29;20632;-66
2023/08/18 02:45:50;;;;;;;12.07;10.97;;;;;;;;;;4878045;29;20602;-66
2023/08/18 02:48:20;;;;;;;13.70;10.97;;;;;;;;;;4877736;29;20623;-66
2023/08/18 02:50:48;;;;;;;11.90;10.90;;;;;;;;;;4877190;29;20629;-66
2023/08/18 02:53:16;;;;;;;12.67;11.43;;;;;;;;;;4877791;29;20619;-66
2023/08/18 02:55:44;;;;;;;14.00;12.30;;;;;;;;;;4878195;29;20631;-66
2023/08/18 02:58:13;;;;;;;14.83;13.40;;;;;;;;;;4878120;29;20619;-66
2023/08/18 03:00:41;;;;;;;12.20;11.23;;;;;;;;;;4877490;29;20659;-66
2023/08/18 03:03:10;;;;;;;13.30;12.10;;;;;;;;;;4876580;29;21017;-66
2023/08/18 03:05:39;;;;;;;14.43;11.73;;;;;;;;;;4858997;29;20639;-67
2023/08/18 03:08:08;;;;;;;12.13;11.13;;;;;;;;;;4874218;29;20630;-66
2023/08/18 03:10:36;;;;;;;14.60;12.00;;;;;;;;;;4876724;29;20621;-66
2023/08/18 03:13:04;;;;;;;14.17;12.73;;;;;;;;;;4868089;29;20624;-66
2023/08/18 03:15:33;;;;;;;13.13;12.10;;;;;;;;;;4860121;29;20640;-66
2023/08/18 03:18:01;;;;;;;13.00;11.90;;;;;;;;;;4860724;29;21069;-66
2023/08/18 03:20:31;;;;;;;13.70;11.87;;;;;;;;;;4858803;29;20692;-66
2023/08/18 03:23:00;;;;;;;12.47;11.00;;;;;;;;;;4859286;29;20987;-66
2023/08/18 03:25:29;;;;;;;11.90;10.90;;;;;;;;;;4858743;29;20634;-66
2023/08/18 03:27:57;;;;;;;14.53;13.23;;;;;;;;;;4857294;29;20624;-66
2023/08/18 03:30:25;;;;;;;12.33;11.30;;;;;;;;;;4858928;29;21059;-66
2023/08/18 03:32:55;;;;;;;13.33;11.50;;;;;;;;;;4858754;29;20620;-66
2023/08/18 03:35:23;;;;;;;12.73;11.60;;;;;;;;;;4866011;29;20650;-66
2023/08/18 03:37:51;;;;;;;12.40;11.33;;;;;;;;;;4861425;29;20623;-66
2023/08/18 03:40:21;;;;;;;11.93;10.93;;;;;;;;;;4881111;29;20667;-68
2023/08/18 03:42:49;;;;;;;12.63;11.47;;;;;;;;;;4863437;29;20643;-66
2023/08/18 03:45:18;;;;;;;11.73;10.73;;;;;;;;;;4880524;29;20679;-66
2023/08/18 03:47:46;;;;;;;14.03;12.73;;;;;;;;;;4865286;29;20997;-65
2023/08/18 03:50:16;;;;;;;14.03;12.77;;;;;;;;;;4864590;29;20635;-66
2023/08/18 03:52:45;;;;;;;12.77;11.47;;;;;;;;;;4863315;29;20627;-66
2023/08/18 03:55:13;;;;;;;14.23;11.33;;;;;;;;;;4863022;29;20735;-66
2023/08/18 03:57:43;;;;;;;12.67;9.90;;;;;;;;;;4880113;29;20661;-66
2023/08/18 04:00:11;;;;;;;11.77;10.33;;;;;;;;;;4863567;29;20663;-66
2023/08/18 04:02:43;;;;;;;13.67;11.27;;;;;;;;;;4879337;29;20599;-66
2023/08/18 04:05:15;;;;;;;14.10;11.10;;;;;;;;;;4847134;29;20675;-66
2023/08/18 04:07:44;;;;;;;12.10;11.00;;;;;;;;;;4879154;29;20623;-66
2023/08/18 04:10:12;;;;;;;16.13;11.60;;;;;;;;;;4863993;29;20602;-65
2023/08/18 04:12:40;;;;;;;14.70;11.40;;;;;;;;;;4863695;29;20615;-66
2023/08/18 04:15:10;;;;;;;12.07;11.07;;;;;;;;;;4880191;29;20643;-66
2023/08/18 04:17:38;;;;;;;12.77;11.53;;;;;;;;;;4879629;29;20583;-66
2023/08/18 04:20:08;;;;;;;13.30;12.10;;;;;;;;;;4863654;29;21303;-66
2023/08/18 04:22:37;;;;;;;12.30;11.20;;;;;;;;;;4863533;29;20622;-66
2023/08/18 04:25:06;;;;;;;12.90;11.80;;;;;;;;;;4863650;29;20629;-66
2023/08/18 04:27:35;;;;;;;13.67;12.30;;;;;;;;;;4863428;29;20632;-66
2023/08/18 04:30:04;;;;;;;13.73;12.33;;;;;;;;;;4863523;29;20598;-66
2023/08/18 04:32:34;;;;;;;13.27;11.90;;;;;;;;;;4878727;29;20633;-66
2023/08/18 04:35:03;;;;;;;14.93;11.37;;;;;;;;;;4880201;29;20961;-66
2023/08/18 04:37:31;;;;;;;12.80;11.80;;;;;;;;;;4878914;29;20626;-66
2023/08/18 04:39:59;;;;;;;12.40;11.17;;;;;;;;;;4879400;29;20665;-66
2023/08/18 04:42:28;;;;;;;13.60;12.30;;;;;;;;;;4863311;29;20619;-66
2023/08/18 04:44:56;;;;;;;12.67;11.57;;;;;;;;;;4862790;29;20641;-66
2023/08/18 04:47:25;;;;;;;12.73;11.40;;;;;;;;;;4848361;29;20630;-69
2023/08/18 04:49:54;;;;;;;13.07;11.47;;;;;;;;;;4878328;29;21177;-66
2023/08/18 04:52:23;;;;;;;12.57;11.37;;;;;;;;;;4848331;29;20626;-66
2023/08/18 04:54:51;;;;;;;12.50;11.43;;;;;;;;;;4847780;29;20633;-66
2023/08/18 04:57:20;;;;;;;12.70;10.93;;;;;;;;;;4879384;29;20615;-66
2023/08/18 04:59:48;;;;;;;14.43;10.60;;;;;;;;;;4878447;29;20653;-66
2023/08/18 05:02:16;;;;;;;13.23;12.00;;;;;;;;;;4862066;29;20630;-66
2023/08/18 05:04:44;;;;;;;12.40;11.13;;;;;;;;;;4868716;29;20690;-67
2023/08/18 05:07:14;;;;;;;12.57;11.27;;;;;;;;;;4860340;29;20986;-66
2023/08/18 05:09:42;;;;;;;15.33;11.27;;;;;;;;;;4874037;29;20619;-66
2023/08/18 05:12:10;;;;;;;14.77;11.60;;;;;;;;;;4862613;29;20623;-66
2023/08/18 05:14:38;;;;;;;17.37;12.10;;;;;;;;;;4879215;29;20623;-67
2023/08/18 05:17:07;;;;;;;12.47;11.33;;;;;;;;;;4857843;29;20691;-66
2023/08/18 05:19:35;;;;;;;13.43;12.23;;;;;;;;;;4877805;29;20623;-69
2023/08/18 05:22:03;;;;;;;14.53;12.30;;;;;;;;;;4878965;29;20669;-67
2023/08/18 05:24:33;;;;;;;11.83;10.83;;;;;;;;;;4879671;29;20623;-67
2023/08/18 05:27:01;;;;;;;11.80;10.80;;;;;;;;;;4879466;29;20629;-67
2023/08/18 05:29:29;;;;;;;13.37;12.10;;;;;;;;;;4879264;29;20627;-67
2023/08/18 05:31:57;;;;;;;14.10;12.30;;;;;;;;;;4878762;29;20687;-67
2023/08/18 05:34:25;;;;;;;11.93;10.93;;;;;;;;;;4879294;29;21019;-67
2023/08/18 05:36:54;;;;;;;12.70;11.47;;;;;;;;;;4878828;29;20970;-67
2023/08/18 05:39:22;;;;;;;13.33;11.63;;;;;;;;;;4879667;29;20619;-67
2023/08/18 05:41:51;;;;;;;12.03;10.83;;;;;;;;;;4879530;29;21021;-66
2023/08/18 05:44:20;;;;;;;11.47;10.40;;;;;;;;;;4878282;29;20687;-67
2023/08/18 05:46:48;;;;;;;11.00;9.90;;;;;;;;;;4878689;29;20631;-67
2023/08/18 05:49:16;;;;;;;11.23;9.20;;;;;;;;;;4879001;29;20619;-67
2023/08/18 05:51:44;;;;;;;10.90;9.90;;;;;;;;;;4874079;29;20997;-66
2023/08/18 05:54:12;;;;;;;10.77;9.80;;;;;;;;;;4878620;29;20998;-66
2023/08/18 05:56:41;;;;;;;11.67;9.97;;;;;;;;;;4875229;29;20660;-67
2023/08/18 05:59:10;;;;;;;10.17;9.23;;;;;;;;;;4877628;29;20633;-67
2023/08/18 06:01:39;;;;;;;10.87;9.50;;;;;;;;;;4860379;29;20671;-67
2023/08/18 06:04:07;;;;;;;13.53;9.63;;;;;;;;;;4876495;29;20702;-67
2023/08/18 06:06:35;;;;;;;11.07;10.17;;;;;;;;;;4877423;29;20999;-67
2023/08/18 06:09:03;;;;;;;19.03;10.93;;;;;;;;;;4877855;29;20630;-67
2023/08/18 06:11:31;;;;;;;9.87;8.93;;;;;;;;;;4861394;29;20631;-68
2023/08/18 06:14:00;;;;;;;13.53;8.70;;;;;;;;;;4877655;29;20636;-67
2023/08/18 06:16:29;;;;;;;9.47;8.57;;;;;;;;;;4861461;29;20635;-67
2023/08/18 06:18:59;;;;;;;12.63;8.10;;;;;;;;;;4877493;29;20627;-67
2023/08/18 06:21:27;;;;;;;11.27;8.93;;;;;;;;;;4859589;29;20694;-67
2023/08/18 06:23:55;;;;;;;9.10;8.30;;;;;;;;;;4878071;29;21186;-68
2023/08/18 06:26:23;;;;;;;10.83;7.60;;;;;;;;;;4877929;29;20650;-67
2023/08/18 06:28:52;;;;;;;10.03;7.50;;;;;;;;;;4874389;29;20990;-67
2023/08/18 06:31:20;;;;;;;8.93;7.50;;;;;;;;;;4858048;29;20627;-67
2023/08/18 06:33:50;;;;;;;8.67;7.87;;;;;;;;;;4882877;29;20631;-67
2023/08/18 06:36:18;;;;;;;12.40;7.90;;;;;;;;;;4861068;29;20639;-67
2023/08/18 06:38:46;;;;;;;11.37;7.57;;;;;;;;;;4860733;29;21219;-67
2023/08/18 06:41:14;;;;;;;14.10;7.97;;;;;;;;;;4878287;29;21007;-67
2023/08/18 06:43:42;;;;;;;9.70;7.23;;;;;;;;;;4859394;29;20635;-67
2023/08/18 06:46:10;;;;;;;9.13;8.23;;;;;;;;;;4871021;29;20662;-67
2023/08/18 06:48:39;;;;;;;8.53;7.83;;;;;;;;;;4860074;29;20635;-67
2023/08/18 06:51:08;;;;;;;8.67;7.87;;;;;;;;;;4877266;29;20631;-67
2023/08/18 06:53:36;;;;;;;8.83;8.13;;;;;;;;;;4842252;29;20680;-67
2023/08/18 06:56:05;;;;;;;8.17;7.57;;;;;;;;;;4850082;29;20647;-67
2023/08/18 06:58:33;;;;;;;11.73;9.60;;;;;;;;;;4872608;29;21061;-67
2023/08/18 07:01:03;;;;;;;13.03;8.93;;;;;;;;;;4872356;29;20671;-67
2023/08/18 07:03:31;;;;;;;13.43;7.90;;;;;;;;;;4870011;29;21015;-67
2023/08/18 07:05:59;;;;;;;11.90;7.13;;;;;;;;;;4871284;29;21029;-66
2023/08/18 07:08:29;;;;;;;7.20;6.53;;;;;;;;;;4877181;29;20639;-67
2023/08/18 07:10:57;;;;;;;10.80;6.93;;;;;;;;;;4877671;29;20631;-67
2023/08/18 07:13:25;;;;;;;10.33;7.07;;;;;;;;;;4873044;29;21208;-67
2023/08/18 07:15:54;;;;;;;6.83;6.13;;;;;;;;;;4880953;29;20635;-67
2023/08/18 07:18:22;;;;;;;10.47;6.50;;;;;;;;;;4878830;29;20643;-67
2023/08/18 07:20:52;;;;;;;8.20;6.70;;;;;;;;;;4880511;29;20985;-67
2023/08/18 07:23:20;;;;;;;11.40;5.43;;;;;;;;;;4880858;29;21012;-67
2023/08/18 07:25:50;;;;;;;6.37;5.83;;;;;;;;;;4880700;29;20958;-67
2023/08/18 07:28:18;;;;;;;8.33;5.67;;;;;;;;;;4880328;29;20628;-67
2023/08/18 07:30:46;;;;;;;7.87;5.20;;;;;;;;;;4879225;29;20661;-67
2023/08/18 07:33:15;;;;;;;5.90;5.27;;;;;;;;;;4878575;29;21567;-66
2023/08/18 07:35:43;;;;;;;5.57;5.07;;;;;;;;;;4879752;29;21013;-66
2023/08/18 07:38:12;;;;;;;8.63;6.17;;;;;;;;;;4879648;29;20983;-66
2023/08/18 07:40:40;;;;;;;7.17;5.10;;;;;;;;;;4863402;29;20639;-67
2023/08/18 07:43:10;;;;;;;5.27;4.80;;;;;;;;;;4878975;29;21244;-66
2023/08/18 07:45:38;;;;;;;6.07;5.47;;;;;;;;;;4862283;29;21008;-66
2023/08/18 07:48:07;;;;;;;6.37;5.20;;;;;;;;;;4883091;29;20635;-65
2023/08/18 07:50:35;;;;;;;6.07;5.57;;;;;;;;;;4878228;29;20683;-67
2023/08/18 07:53:03;;;;;;;9.47;5.37;;;;;;;;;;4889747;29;20706;-65
2023/08/18 07:55:31;;;;;;;5.40;5.00;;;;;;;;;;4870996;29;21067;-66
2023/08/18 07:58:00;;;;;;;6.10;5.50;;;;;;;;;;4871394;29;20695;-65
2023/08/18 08:00:30;;;;;;;7.60;5.00;;;;;;;;;;4889729;29;20725;-69
2023/08/18 08:02:58;;;;;;;6.43;5.53;;;;;;;;;;4868730;29;21000;-66
2023/08/18 08:05:27;;;;;;;8.70;5.00;;;;;;;;;;4871656;29;20726;-67
2023/08/18 08:07:55;;;;;;;5.23;4.83;;;;;;;;;;4868327;29;20755;-69
2023/08/18 08:10:23;;;;;;;6.03;5.30;;;;;;;;;;4865498;29;20627;-65
2023/08/18 08:12:51;;;;;;;5.63;5.20;;;;;;;;;;4864268;29;20624;-65
2023/08/18 08:15:20;;;;;;;6.97;5.60;;;;;;;;;;4871277;29;21069;-64
2023/08/18 08:17:49;;;;;;;5.50;5.10;;;;;;;;;;4886545;29;20717;-65
2023/08/18 08:20:17;;;;;;;6.87;5.50;;;;;;;;;;4885822;29;20687;-65
2023/08/18 08:22:46;;;;;;;11.97;5.17;;;;;;;;;;4882339;29;21043;-66
2023/08/18 08:25:15;;;;;;;5.43;4.90;;;;;;;;;;4882127;29;21250;-66
2023/08/18 08:27:43;;;;;;;7.03;4.73;;;;;;;;;;4878408;29;21161;-66
2023/08/18 08:30:13;;;;;;;5.30;5.00;;;;;;;;;;4882290;29;20638;-66
2023/08/18 08:32:41;;;;;;;5.70;5.20;;;;;;;;;;4885378;29;21376;-66
2023/08/18 08:35:11;;;;;;;6.40;5.90;;;;;;;;;;4882224;29;20641;-66
2023/08/18 08:37:41;;;;;;;6.13;5.53;;;;;;;;;;4875704;29;20760;-66
2023/08/18 08:40:10;;;;;;;5.50;5.07;;;;;;;;;;4879462;29;20723;-66
2023/08/18 08:42:38;;;;;;;6.60;5.77;;;;;;;;;;4881371;29;20667;-66
2023/08/18 08:45:07;;;;;;;6.93;5.50;;;;;;;;;;4887701;29;20627;-66
2023/08/18 08:47:35;;;;;;;6.13;5.47;;;;;;;;;;4882015;29;20641;-66
2023/08/18 08:50:04;;;;;;;7.40;5.27;;;;;;;;;;4865549;29;20623;-66
2023/08/18 08:52:38;;;;;;;5.67;5.27;;;;;;;;;;4877341;29;20647;-66
2023/08/18 08:55:07;;;;;;;7.33;4.90;;;;;;;;;;4865698;29;20607;-66
2023/08/18 08:57:36;;;;;;;5.70;5.30;;;;;;;;;;4881861;29;20639;-67
2023/08/18 09:00:05;;;;;;;9.20;5.70;;;;;;;;;;4880892;29;21026;-67
2023/08/18 09:02:33;;;;;;;5.90;5.23;;;;;;;;;;4889699;29;20703;-67
2023/08/18 09:05:02;;;;;;;6.10;5.13;;;;;;;;;;4874735;29;20684;-66
2023/08/18 09:07:30;;;;;;;9.93;6.97;;;;;;;;;;4872237;29;20631;-65
2023/08/18 09:10:00;;;;;;;5.23;4.83;;;;;;;;;;4881764;29;20633;-66
2023/08/18 09:12:29;;;;;;;5.93;5.43;;;;;;;;;;4878325;29;20671;-66
2023/08/18 09:14:58;;;;;;;5.37;5.07;;;;;;;;;;4862830;29;20626;-65
2023/08/18 09:17:28;;;;;;;5.93;5.43;;;;;;;;;;4862917;29;20707;-68
2023/08/18 09:19:57;;;;;;;5.60;5.00;;;;;;;;;;4865789;29;20636;-66
2023/08/18 09:22:26;;;;;;;5.73;5.33;;;;;;;;;;4873004;29;20659;-68
2023/08/18 09:24:56;;;;;;;6.17;5.77;;;;;;;;;;4881266;29;20631;-66
2023/08/18 09:27:27;;;;;;;6.43;6.03;;;;;;;;;;4871915;29;20615;-66
2023/08/18 09:29:58;;;;;;;6.87;6.37;;;;;;;;;;4879750;29;20669;-67
2023/08/18 09:32:27;;;;;;;5.83;5.43;;;;;;;;;;4875061;29;20615;-66
2023/08/18 09:34:56;;;;;;;6.23;5.63;;;;;;;;;;4878323;29;21008;-67
2023/08/18 09:37:30;;;;;;;6.00;5.50;;;;;;;;;;4879540;29;20645;-66
2023/08/18 09:39:59;;;;;;;6.40;5.90;;;;;;;;;;4880536;29;20704;-67
2023/08/18 09:42:28;;;;;;;6.93;5.90;;;;;;;;;;4881021;29;20710;-68
2023/08/18 09:44:56;;;;;;;6.30;5.70;;;;;;;;;;4881233;29;21324;-66
2023/08/18 09:47:26;;;;;;;9.13;6.33;;;;;;;;;;4881394;29;20649;-67
2023/08/18 09:49:54;;;;;;;6.27;5.73;;;;;;;;;;4880884;29;20628;-67
2023/08/18 09:52:23;;;;;;;5.67;5.13;;;;;;;;;;4880863;29;20675;-67
2023/08/18 09:54:56;;;;;;;6.07;5.73;;;;;;;;;;4880855;29;20604;-67
2023/08/18 09:57:28;;;;;;;6.30;6.00;;;;;;;;;;4881373;29;20690;-66
2023/08/18 10:00:00;;;;;;;6.77;6.17;;;;;;;;;;4863915;29;20678;-66
2023/08/18 10:02:30;;;;;;;9.57;6.80;;;;;;;;;;4881282;29;20655;-66
2023/08/18 10:04:59;;;;;;;6.97;6.53;;;;;;;;;;4867738;29;20683;-66
2023/08/18 10:07:27;;;;;;;7.00;6.40;;;;;;;;;;4877069;29;20632;-66
2023/08/18 10:09:56;;;;;;;8.53;6.67;;;;;;;;;;4880894;29;20638;-66
2023/08/18 10:12:23;;;;;;;7.00;6.47;;;;;;;;;;4879551;29;20627;-66
2023/08/18 10:14:53;;;;;;;7.60;7.00;;;;;;;;;;4877318;29;20643;-67
2023/08/18 10:17:24;;;;;;;7.30;6.70;;;;;;;;;;4878510;29;20643;-66
2023/08/18 10:19:55;;;;;;;7.50;6.40;;;;;;;;;;4880377;29;21252;-66
2023/08/18 10:22:25;;;;;;;7.77;7.17;;;;;;;;;;4878460;29;20620;-68
2023/08/18 10:24:54;;;;;;;8.13;7.43;;;;;;;;;;4877328;29;20659;-66
2023/08/18 10:27:32;;;;;;;7.53;7.03;;;;;;;;;;4879289;29;20641;-67
2023/08/18 10:30:02;;;;;;;7.10;6.70;;;;;;;;;;4878674;29;20623;-66
2023/08/18 10:32:32;;;;;;;6.73;6.33;;;;;;;;;;4878003;29;20635;-67
2023/08/18 10:35:19;;;;;;;7.70;7.00;;;;;;;;;;4880476;29;20718;-67
2023/08/18 10:37:49;;;;;;;7.50;7.00;;;;;;;;;;4880552;29;20619;-66
2023/08/18 10:40:23;;;;;;;8.03;7.30;;;;;;;;;;4864498;29;20716;-66
2023/08/18 10:42:52;;;;;;;7.97;7.37;;;;;;;;;;4861688;29;20651;-67
2023/08/18 10:45:24;;;;;;;7.83;7.30;;;;;;;;;;4875413;29;21058;-66
2023/08/18 10:47:57;;;;;;;7.70;7.13;;;;;;;;;;4881049;29;20598;-66
2023/08/18 10:50:25;;;;;;;7.80;7.00;;;;;;;;;;4882830;29;20607;-70
2023/08/18 10:52:54;;;;;;;7.20;6.80;;;;;;;;;;4883475;29;21043;-66
2023/08/18 10:55:24;;;;;;;7.60;7.10;;;;;;;;;;4883510;29;20622;-67
2023/08/18 10:57:52;;;;;;;10.03;7.00;;;;;;;;;;4866467;29;21182;-66
2023/08/18 11:00:21;;;;;;;8.07;7.27;;;;;;;;;;4884154;29;20702;-67
2023/08/18 11:02:50;;;;;;;7.90;7.30;;;;;;;;;;4881865;29;21275;-67
2023/08/18 11:05:20;;;;;;;7.80;7.10;;;;;;;;;;4879439;29;20670;-67
2023/08/18 11:07:49;;;;;;;8.40;7.80;;;;;;;;;;4882815;29;20627;-67
2023/08/18 11:10:18;;;;;;;8.03;7.33;;;;;;;;;;4876072;29;20643;-66
2023/08/18 11:12:47;;;;;;;10.40;9.57;;;;;;;;;;4883042;29;20995;-67
2023/08/18 11:15:16;;;;;;;11.00;7.90;;;;;;;;;;4883089;29;20643;-69
2023/08/18 11:17:44;;;;;;;8.80;7.90;;;;;;;;;;4865039;29;20635;-67
2023/08/18 11:20:13;;;;;;;8.43;7.83;;;;;;;;;;4874512;29;21277;-67
2023/08/18 11:22:42;;;;;;;9.43;8.73;;;;;;;;;;4885755;29;20710;-67
2023/08/18 11:25:12;;;;;;;10.27;9.57;;;;;;;;;;4884784;29;21268;-65
2023/08/18 11:27:41;;;;;;;10.07;9.23;;;;;;;;;;4866973;29;20623;-66
2023/08/18 11:30:10;;;;;;;10.80;10.10;;;;;;;;;;4874490;29;20642;-65
2023/08/18 11:32:38;;;;;;;9.80;9.40;;;;;;;;;;4880376;29;20725;-65
2023/08/18 11:35:07;;;;;;;11.53;10.73;;;;;;;;;;4885406;29;20722;-65
2023/08/18 11:37:40;;;;;;;10.53;9.73;;;;;;;;;;4884429;29;21066;-65
2023/08/18 11:40:12;;;;;;;11.10;10.30;;;;;;;;;;4882689;29;21030;-65
2023/08/18 11:42:41;;;;;;;11.60;10.90;;;;;;;;;;4880626;29;20619;-65
2023/08/18 11:45:10;;;;;;;11.30;10.73;;;;;;;;;;4881896;29;20667;-65
2023/08/18 11:47:39;;;;;;;11.17;10.47;;;;;;;;;;4881265;29;20635;-66
2023/08/18 11:50:08;;;;;;;11.77;11.07;;;;;;;;;;4883327;29;20623;-66
2023/08/18 11:52:44;;;;;;;12.90;11.90;;;;;;;;;;4882699;29;20986;-66
2023/08/18 11:55:14;;;;;;;11.97;11.20;;;;;;;;;;4883112;29;20715;-65
2023/08/18 11:57:45;;;;;;;12.23;11.50;;;;;;;;;;4882663;29;20726;-65
2023/08/18 12:00:14;;;;;;;12.60;11.77;;;;;;;;;;4866944;29;20591;-65
2023/08/18 12:02:43;;;;;;;11.87;10.97;;;;;;;;;;4881309;29;20650;-66
2023/08/18 12:05:22;;;;;;;11.87;11.27;;;;;;;;;;4880882;29;20677;-65
2023/08/18 12:07:51;;;;;;;11.40;10.70;;;;;;;;;;4881901;29;20637;-66
2023/08/18 12:10:20;;;;;;;13.10;11.60;;;;;;;;;;4881565;29;21277;-66
2023/08/18 12:12:52;;;;;;;11.40;10.83;;;;;;;;;;4881806;29;20707;-65
2023/08/18 12:15:20;;;;;;;11.70;11.10;;;;;;;;;;4873112;29;20645;-66
2023/08/18 12:17:49;;;;;;;11.60;10.87;;;;;;;;;;4864638;29;20630;-66
2023/08/18 12:20:19;;;;;;;12.17;11.27;;;;;;;;;;4881209;29;20725;-66
2023/08/18 12:22:47;;;;;;;12.30;11.43;;;;;;;;;;4877232;29;20624;-66
2023/08/18 12:25:15;;;;;;;12.30;11.40;;;;;;;;;;4881058;29;20737;-67
2023/08/18 12:27:46;;;;;;;11.60;11.00;;;;;;;;;;4881369;29;20640;-66
2023/08/18 12:30:16;;;;;;;12.70;11.90;;;;;;;;;;4876410;29;21254;-66
2023/08/18 12:32:45;;;;;;;12.10;11.50;;;;;;;;;;4882265;29;20635;-66
2023/08/18 12:35:14;;;;;;;12.17;11.37;;;;;;;;;;4881364;29;20631;-66
2023/08/18 12:37:42;;;;;;;11.33;10.70;;;;;;;;;;4882574;29;20631;-66
2023/08/18 12:40:12;;;;;;;12.60;11.80;;;;;;;;;;4881355;29;21281;-66
2023/08/18 12:42:41;;;;;;;12.63;11.93;;;;;;;;;;4865615;29;20638;-66
2023/08/18 12:45:11;;;;;;;12.60;11.60;;;;;;;;;;4881475;29;20659;-66
2023/08/18 12:47:39;;;;;;;12.80;11.60;;;;;;;;;;4865041;29;20595;-66
2023/08/18 12:50:08;;;;;;;12.80;11.90;;;;;;;;;;4881177;29;20700;-66
2023/08/18 12:52:36;;;;;;;12.97;12.27;;;;;;;;;;4881540;29;20646;-66
2023/08/18 12:55:05;;;;;;;12.57;11.83;;;;;;;;;;4881801;29;20634;-66
2023/08/18 12:57:33;;;;;;;12.00;11.30;;;;;;;;;;4882326;29;21203;-66
2023/08/18 13:00:01;;;;;;;12.63;11.60;;;;;;;;;;4865371;29;20636;-66
2023/08/18 13:02:30;;;;;;;12.10;11.50;;;;;;;;;;4881381;29;20629;-66
2023/08/18 13:05:00;;;;;;;11.90;11.10;;;;;;;;;;4880851;29;20670;-67
2023/08/18 13:07:28;;;;;;;11.83;11.10;;;;;;;;;;4882156;29;20623;-66
2023/08/18 13:09:57;;;;;;;11.97;11.37;;;;;;;;;;4881384;29;20619;-66
2023/08/18 13:12:25;;;;;;;11.80;11.20;;;;;;;;;;4880839;29;20654;-68
2023/08/18 13:14:53;;;;;;;12.63;11.73;;;;;;;;;;4881569;29;20627;-66
2023/08/18 13:17:22;;;;;;;12.27;11.57;;;;;;;;;;4865574;29;20619;-66
2023/08/18 13:19:51;;;;;;;12.77;11.87;;;;;;;;;;4881779;29;20639;-66
2023/08/18 13:22:20;;;;;;;12.80;12.00;;;;;;;;;;4866155;29;21174;-67
2023/08/18 13:24:48;;;;;;;12.97;12.10;;;;;;;;;;4881376;29;20763;-67
2023/08/18 13:27:17;;;;;;;13.10;12.40;;;;;;;;;;4881867;29;20682;-67
2023/08/18 13:29:45;;;;;;;12.53;11.83;;;;;;;;;;4861408;29;20636;-67
2023/08/18 13:32:14;;;;;;;12.40;11.37;;;;;;;;;;4882764;29;20607;-67
2023/08/18 13:34:43;;;;;;;15.47;12.23;;;;;;;;;;4882116;29;21116;-66
2023/08/18 13:37:13;;;;;;;11.83;11.10;;;;;;;;;;4880832;29;20603;-67
2023/08/18 13:39:41;;;;;;;11.20;10.63;;;;;;;;;;4881439;29;20719;-68
2023/08/18 13:42:09;;;;;;;11.33;10.63;;;;;;;;;;4881682;29;20631;-66
2023/08/18 13:44:37;;;;;;;12.80;10.83;;;;;;;;;;4882022;29;20659;-68
2023/08/18 13:47:06;;;;;;;12.40;11.40;;;;;;;;;;4882543;29;20715;-66
2023/08/18 13:49:35;;;;;;;11.70;10.80;;;;;;;;;;4881277;29;20922;-68
2023/08/18 13:52:04;;;;;;;11.87;11.10;;;;;;;;;;4881490;29;20723;-67
2023/08/18 13:54:34;;;;;;;11.90;11.20;;;;;;;;;;4881909;29;20723;-67
2023/08/18 13:57:02;;;;;;;11.90;10.90;;;;;;;;;;4864549;29;20988;-67
2023/08/18 13:59:30;;;;;;;11.50;10.90;;;;;;;;;;4881031;29;20635;-66
2023/08/18 14:01:58;;;;;;;12.67;11.57;;;;;;;;;;4880701;29;20606;-67
2023/08/18 14:04:26;;;;;;;11.60;10.80;;;;;;;;;;4873609;29;20731;-67
2023/08/18 14:06:56;;;;;;;11.77;10.90;;;;;;;;;;4878349;29;21246;-67
2023/08/18 14:09:25;;;;;;;10.97;10.27;;;;;;;;;;4880823;29;20636;-67
2023/08/18 14:11:54;;;;;;;12.03;10.93;;;;;;;;;;4880922;29;21303;-68
2023/08/18 14:14:22;;;;;;;11.17;10.57;;;;;;;;;;4880977;29;20645;-67
2023/08/18 14:16:51;;;;;;;13.33;12.00;;;;;;;;;;4880909;29;21348;-66
2023/08/18 14:19:19;;;;;;;11.20;10.50;;;;;;;;;;4880161;29;20642;-67
2023/08/18 14:21:47;;;;;;;10.50;10.00;;;;;;;;;;4880418;29;20615;-67
2023/08/18 14:24:16;;;;;;;11.83;10.90;;;;;;;;;;4879621;29;21064;-66
2023/08/18 14:26:44;;;;;;;11.93;11.10;;;;;;;;;;4880698;29;20630;-67
2023/08/18 14:29:15;;;;;;;11.40;10.80;;;;;;;;;;4879651;29;20642;-67
2023/08/18 14:31:44;;;;;;;12.20;11.37;;;;;;;;;;4880822;29;20607;-67
2023/08/18 14:34:12;;;;;;;11.60;10.97;;;;;;;;;;4878600;29;21229;-67
2023/08/18 14:36:40;;;;;;;11.40;10.60;;;;;;;;;;4879474;29;20642;-65